sensor_id;sensor_type;location;lat;lon;timestamp;P1;durP1;ratioP1;P2;durP2;ratioP2
10657;SDS011;5377;43.276;26.930;2023-05-07T00:02:25;2.72;;;1.85;;
10657;SDS011;5377;43.276;26.930;2023-05-07T00:04:53;3.40;;;1.90;;
10657;SDS011;5377;43.276;26.930;2023-05-07T00:07:20;2.45;;;2.15;;
10657;SDS011;5377;43.276;26.930;2023-05-07T00:09:47;2.42;;;1.85;;
10657;SDS011;5377;43.276;26.930;2023-05-07T00:12:14;2.58;;;1.92;;
10657;SDS011;5377;43.276;26.930;2023-05-07T00:14:40;1.65;;;1.55;;
10657;SDS011;5377;43.276;26.930;2023-05-07T00:17:07;3.03;;;1.55;;
10657;SDS011;5377;43.276;26.930;2023-05-07T00:19:34;4.25;;;1.70;;
10657;SDS011;5377;43.276;26.930;2023-05-07T00:22:02;3.00;;;1.80;;
10657;SDS011;5377;43.276;26.930;2023-05-07T00:24:29;2.53;;;1.77;;
10657;SDS011;5377;43.276;26.930;2023-05-07T00:26:56;1.55;;;1.45;;
10657;SDS011;5377;43.276;26.930;2023-05-07T00:29:23;1.65;;;1.50;;
10657;SDS011;5377;43.276;26.930;2023-05-07T00:31:50;2.05;;;1.85;;
10657;SDS011;5377;43.276;26.930;2023-05-07T00:34:19;1.85;;;1.75;;
10657;SDS011;5377;43.276;26.930;2023-05-07T00:36:46;2.72;;;1.80;;
10657;SDS011;5377;43.276;26.930;2023-05-07T00:39:14;3.72;;;1.67;;
10657;SDS011;5377;43.276;26.930;2023-05-07T00:41:41;3.85;;;1.85;;
10657;SDS011;5377;43.276;26.930;2023-05-07T00:44:08;1.63;;;1.52;;
10657;SDS011;5377;43.276;26.930;2023-05-07T00:46:34;2.10;;;2.00;;
10657;SDS011;5377;43.276;26.930;2023-05-07T00:49:01;4.13;;;2.33;;
10657;SDS011;5377;43.276;26.930;2023-05-07T00:51:29;3.22;;;1.73;;
10657;SDS011;5377;43.276;26.930;2023-05-07T00:53:56;2.17;;;2.00;;
10657;SDS011;5377;43.276;26.930;2023-05-07T00:56:24;2.53;;;1.52;;
10657;SDS011;5377;43.276;26.930;2023-05-07T00:58:51;2.58;;;2.35;;
10657;SDS011;5377;43.276;26.930;2023-05-07T01:01:18;3.97;;;2.25;;
10657;SDS011;5377;43.276;26.930;2023-05-07T01:03:45;3.47;;;2.88;;
10657;SDS011;5377;43.276;26.930;2023-05-07T01:06:12;3.17;;;2.47;;
10657;SDS011;5377;43.276;26.930;2023-05-07T01:08:41;1.80;;;1.35;;
10657;SDS011;5377;43.276;26.930;2023-05-07T01:11:09;1.52;;;1.33;;
10657;SDS011;5377;43.276;26.930;2023-05-07T01:13:39;2.17;;;1.60;;
10657;SDS011;5377;43.276;26.930;2023-05-07T01:16:06;1.67;;;1.45;;
10657;SDS011;5377;43.276;26.930;2023-05-07T01:18:35;2.90;;;1.25;;
10657;SDS011;5377;43.276;26.930;2023-05-07T01:21:03;1.38;;;1.08;;
10657;SDS011;5377;43.276;26.930;2023-05-07T01:23:32;2.30;;;1.85;;
10657;SDS011;5377;43.276;26.930;2023-05-07T01:26:01;2.90;;;1.75;;
10657;SDS011;5377;43.276;26.930;2023-05-07T01:28:28;6.82;;;1.73;;
10657;SDS011;5377;43.276;26.930;2023-05-07T01:30:57;2.55;;;1.73;;
10657;SDS011;5377;43.276;26.930;2023-05-07T01:33:27;3.10;;;1.70;;
10657;SDS011;5377;43.276;26.930;2023-05-07T01:35:57;3.38;;;1.98;;
10657;SDS011;5377;43.276;26.930;2023-05-07T01:38:27;3.17;;;1.35;;
10657;SDS011;5377;43.276;26.930;2023-05-07T01:40:56;2.45;;;1.90;;
10657;SDS011;5377;43.276;26.930;2023-05-07T01:43:23;2.17;;;1.30;;
10657;SDS011;5377;43.276;26.930;2023-05-07T01:45:51;1.15;;;1.05;;
10657;SDS011;5377;43.276;26.930;2023-05-07T01:48:19;2.05;;;1.40;;
10657;SDS011;5377;43.276;26.930;2023-05-07T01:50:46;2.42;;;0.90;;
10657;SDS011;5377;43.276;26.930;2023-05-07T01:53:14;1.90;;;1.80;;
10657;SDS011;5377;43.276;26.930;2023-05-07T01:55:41;2.08;;;1.85;;
10657;SDS011;5377;43.276;26.930;2023-05-07T01:58:09;2.28;;;1.30;;
10657;SDS011;5377;43.276;26.930;2023-05-07T02:00:36;4.03;;;1.75;;
10657;SDS011;5377;43.276;26.930;2023-05-07T02:03:03;1.85;;;1.20;;
10657;SDS011;5377;43.276;26.930;2023-05-07T02:05:29;2.58;;;1.27;;
10657;SDS011;5377;43.276;26.930;2023-05-07T02:07:56;1.58;;;1.30;;
10657;SDS011;5377;43.276;26.930;2023-05-07T02:10:23;1.40;;;1.20;;
10657;SDS011;5377;43.276;26.930;2023-05-07T02:12:50;3.65;;;1.80;;
10657;SDS011;5377;43.276;26.930;2023-05-07T02:15:18;2.47;;;1.70;;
10657;SDS011;5377;43.276;26.930;2023-05-07T02:18:01;2.80;;;1.63;;
10657;SDS011;5377;43.276;26.930;2023-05-07T02:20:29;4.63;;;1.98;;
10657;SDS011;5377;43.276;26.930;2023-05-07T02:22:56;2.20;;;1.85;;
10657;SDS011;5377;43.276;26.930;2023-05-07T02:25:23;2.55;;;1.98;;
10657;SDS011;5377;43.276;26.930;2023-05-07T02:27:50;4.60;;;1.52;;
10657;SDS011;5377;43.276;26.930;2023-05-07T02:30:18;4.82;;;1.45;;
10657;SDS011;5377;43.276;26.930;2023-05-07T02:32:46;5.38;;;1.85;;
10657;SDS011;5377;43.276;26.930;2023-05-07T02:35:13;1.65;;;1.40;;
10657;SDS011;5377;43.276;26.930;2023-05-07T02:37:39;3.38;;;1.80;;
10657;SDS011;5377;43.276;26.930;2023-05-07T02:40:07;3.35;;;1.73;;
10657;SDS011;5377;43.276;26.930;2023-05-07T02:42:34;3.97;;;1.85;;
10657;SDS011;5377;43.276;26.930;2023-05-07T02:45:01;1.30;;;1.17;;
10657;SDS011;5377;43.276;26.930;2023-05-07T02:47:29;2.78;;;2.00;;
10657;SDS011;5377;43.276;26.930;2023-05-07T02:49:56;3.35;;;1.85;;
10657;SDS011;5377;43.276;26.930;2023-05-07T02:52:23;2.47;;;2.28;;
10657;SDS011;5377;43.276;26.930;2023-05-07T02:54:50;4.13;;;2.78;;
10657;SDS011;5377;43.276;26.930;2023-05-07T02:57:16;3.25;;;2.08;;
10657;SDS011;5377;43.276;26.930;2023-05-07T02:59:43;3.38;;;2.13;;
10657;SDS011;5377;43.276;26.930;2023-05-07T03:02:10;2.72;;;2.08;;
10657;SDS011;5377;43.276;26.930;2023-05-07T03:04:39;4.03;;;1.85;;
10657;SDS011;5377;43.276;26.930;2023-05-07T03:07:06;2.05;;;1.58;;
10657;SDS011;5377;43.276;26.930;2023-05-07T03:09:33;8.40;;;3.03;;
10657;SDS011;5377;43.276;26.930;2023-05-07T03:11:59;5.82;;;2.42;;
10657;SDS011;5377;43.276;26.930;2023-05-07T03:14:26;4.80;;;2.20;;
10657;SDS011;5377;43.276;26.930;2023-05-07T03:16:53;6.22;;;3.38;;
10657;SDS011;5377;43.276;26.930;2023-05-07T03:19:20;5.32;;;2.22;;
10657;SDS011;5377;43.276;26.930;2023-05-07T03:21:48;3.70;;;1.88;;
10657;SDS011;5377;43.276;26.930;2023-05-07T03:24:15;4.65;;;2.58;;
10657;SDS011;5377;43.276;26.930;2023-05-07T03:26:42;3.20;;;1.90;;
10657;SDS011;5377;43.276;26.930;2023-05-07T03:29:08;6.95;;;2.90;;
10657;SDS011;5377;43.276;26.930;2023-05-07T03:31:35;11.10;;;3.42;;
10657;SDS011;5377;43.276;26.930;2023-05-07T03:34:02;4.13;;;2.53;;
10657;SDS011;5377;43.276;26.930;2023-05-07T03:36:29;6.18;;;2.63;;
10657;SDS011;5377;43.276;26.930;2023-05-07T03:38:57;4.07;;;2.38;;
10657;SDS011;5377;43.276;26.930;2023-05-07T03:41:24;3.35;;;2.58;;
10657;SDS011;5377;43.276;26.930;2023-05-07T03:43:51;9.00;;;2.53;;
10657;SDS011;5377;43.276;26.930;2023-05-07T03:46:17;3.05;;;2.35;;
10657;SDS011;5377;43.276;26.930;2023-05-07T03:48:44;5.45;;;2.63;;
10657;SDS011;5377;43.276;26.930;2023-05-07T03:51:11;3.88;;;3.08;;
10657;SDS011;5377;43.276;26.930;2023-05-07T03:53:38;6.63;;;4.15;;
10657;SDS011;5377;43.276;26.930;2023-05-07T03:56:06;4.43;;;4.03;;
10657;SDS011;5377;43.276;26.930;2023-05-07T03:58:33;5.45;;;4.28;;
10657;SDS011;5377;43.276;26.930;2023-05-07T04:01:00;10.60;;;3.08;;
10657;SDS011;5377;43.276;26.930;2023-05-07T04:03:27;7.30;;;4.22;;
10657;SDS011;5377;43.276;26.930;2023-05-07T04:05:54;5.80;;;2.80;;
10657;SDS011;5377;43.276;26.930;2023-05-07T04:08:20;5.68;;;4.20;;
10657;SDS011;5377;43.276;26.930;2023-05-07T04:10:47;6.72;;;3.60;;
10657;SDS011;5377;43.276;26.930;2023-05-07T04:13:15;7.47;;;4.55;;
10657;SDS011;5377;43.276;26.930;2023-05-07T04:15:42;7.15;;;4.38;;
10657;SDS011;5377;43.276;26.930;2023-05-07T04:18:10;5.70;;;4.32;;
10657;SDS011;5377;43.276;26.930;2023-05-07T04:20:36;5.40;;;3.88;;
10657;SDS011;5377;43.276;26.930;2023-05-07T04:23:03;4.22;;;3.17;;
10657;SDS011;5377;43.276;26.930;2023-05-07T04:25:30;7.20;;;3.00;;
10657;SDS011;5377;43.276;26.930;2023-05-07T04:27:57;3.92;;;3.20;;
10657;SDS011;5377;43.276;26.930;2023-05-07T04:30:25;5.50;;;3.33;;
10657;SDS011;5377;43.276;26.930;2023-05-07T04:32:52;3.80;;;2.90;;
10657;SDS011;5377;43.276;26.930;2023-05-07T04:35:19;3.38;;;3.08;;
10657;SDS011;5377;43.276;26.930;2023-05-07T04:37:45;6.55;;;2.92;;
10657;SDS011;5377;43.276;26.930;2023-05-07T04:40:12;6.20;;;4.38;;
10657;SDS011;5377;43.276;26.930;2023-05-07T04:42:39;4.85;;;2.78;;
10657;SDS011;5377;43.276;26.930;2023-05-07T04:45:06;5.57;;;4.95;;
10657;SDS011;5377;43.276;26.930;2023-05-07T04:47:36;8.38;;;2.58;;
10657;SDS011;5377;43.276;26.930;2023-05-07T04:50:03;2.53;;;1.70;;
10657;SDS011;5377;43.276;26.930;2023-05-07T04:52:31;2.65;;;1.95;;
10657;SDS011;5377;43.276;26.930;2023-05-07T04:54:58;2.88;;;1.80;;
10657;SDS011;5377;43.276;26.930;2023-05-07T04:57:25;5.10;;;1.30;;
10657;SDS011;5377;43.276;26.930;2023-05-07T04:59:52;3.50;;;1.30;;
10657;SDS011;5377;43.276;26.930;2023-05-07T05:02:19;2.75;;;2.22;;
10657;SDS011;5377;43.276;26.930;2023-05-07T05:04:47;3.92;;;1.65;;
10657;SDS011;5377;43.276;26.930;2023-05-07T05:07:14;3.83;;;1.02;;
10657;SDS011;5377;43.276;26.930;2023-05-07T05:09:41;10.15;;;1.58;;
10657;SDS011;5377;43.276;26.930;2023-05-07T05:12:07;2.80;;;1.30;;
10657;SDS011;5377;43.276;26.930;2023-05-07T05:14:34;8.70;;;4.28;;
10657;SDS011;5377;43.276;26.930;2023-05-07T05:17:01;3.58;;;1.50;;
10657;SDS011;5377;43.276;26.930;2023-05-07T05:19:28;6.80;;;1.50;;
10657;SDS011;5377;43.276;26.930;2023-05-07T05:21:56;6.78;;;2.55;;
10657;SDS011;5377;43.276;26.930;2023-05-07T05:24:23;10.57;;;5.80;;
10657;SDS011;5377;43.276;26.930;2023-05-07T05:26:49;9.15;;;4.32;;
10657;SDS011;5377;43.276;26.930;2023-05-07T05:29:16;6.25;;;3.28;;
10657;SDS011;5377;43.276;26.930;2023-05-07T05:31:43;6.07;;;2.50;;
10657;SDS011;5377;43.276;26.930;2023-05-07T05:34:10;7.10;;;2.88;;
10657;SDS011;5377;43.276;26.930;2023-05-07T05:36:36;9.65;;;3.97;;
10657;SDS011;5377;43.276;26.930;2023-05-07T05:39:05;5.60;;;2.42;;
10657;SDS011;5377;43.276;26.930;2023-05-07T05:41:32;8.95;;;1.90;;
10657;SDS011;5377;43.276;26.930;2023-05-07T05:43:58;9.45;;;2.35;;
10657;SDS011;5377;43.276;26.930;2023-05-07T05:46:25;5.50;;;1.42;;
10657;SDS011;5377;43.276;26.930;2023-05-07T05:48:52;4.35;;;1.88;;
10657;SDS011;5377;43.276;26.930;2023-05-07T05:51:19;3.22;;;1.40;;
10657;SDS011;5377;43.276;26.930;2023-05-07T05:53:46;5.22;;;2.08;;
10657;SDS011;5377;43.276;26.930;2023-05-07T05:56:15;5.43;;;1.40;;
10657;SDS011;5377;43.276;26.930;2023-05-07T05:58:42;2.78;;;1.10;;
10657;SDS011;5377;43.276;26.930;2023-05-07T06:01:09;4.80;;;1.98;;
10657;SDS011;5377;43.276;26.930;2023-05-07T06:03:37;5.60;;;1.30;;
10657;SDS011;5377;43.276;26.930;2023-05-07T06:06:03;4.75;;;1.95;;
10657;SDS011;5377;43.276;26.930;2023-05-07T06:08:30;1.73;;;1.05;;
10657;SDS011;5377;43.276;26.930;2023-05-07T06:10:58;4.35;;;1.88;;
10657;SDS011;5377;43.276;26.930;2023-05-07T06:13:26;11.85;;;2.83;;
10657;SDS011;5377;43.276;26.930;2023-05-07T06:15:53;2.40;;;1.42;;
10657;SDS011;5377;43.276;26.930;2023-05-07T06:18:20;2.45;;;1.20;;
10657;SDS011;5377;43.276;26.930;2023-05-07T06:20:47;5.30;;;1.48;;
10657;SDS011;5377;43.276;26.930;2023-05-07T06:23:14;4.97;;;1.48;;
10657;SDS011;5377;43.276;26.930;2023-05-07T06:25:41;6.45;;;1.48;;
10657;SDS011;5377;43.276;26.930;2023-05-07T06:28:07;5.47;;;1.55;;
10657;SDS011;5377;43.276;26.930;2023-05-07T06:30:37;1.95;;;1.13;;
10657;SDS011;5377;43.276;26.930;2023-05-07T06:33:05;6.53;;;1.55;;
10657;SDS011;5377;43.276;26.930;2023-05-07T06:35:32;2.45;;;0.95;;
10657;SDS011;5377;43.276;26.930;2023-05-07T06:37:59;4.90;;;0.95;;
10657;SDS011;5377;43.276;26.930;2023-05-07T06:40:26;1.55;;;0.93;;
10657;SDS011;5377;43.276;26.930;2023-05-07T06:42:53;2.50;;;1.42;;
10657;SDS011;5377;43.276;26.930;2023-05-07T06:45:20;2.50;;;1.00;;
10657;SDS011;5377;43.276;26.930;2023-05-07T06:47:48;2.92;;;0.90;;
10657;SDS011;5377;43.276;26.930;2023-05-07T06:50:14;3.45;;;1.40;;
10657;SDS011;5377;43.276;26.930;2023-05-07T06:52:42;1.33;;;0.90;;
10657;SDS011;5377;43.276;26.930;2023-05-07T06:55:09;1.60;;;1.38;;
10657;SDS011;5377;43.276;26.930;2023-05-07T06:57:36;1.98;;;0.85;;
10657;SDS011;5377;43.276;26.930;2023-05-07T07:00:03;2.17;;;1.23;;
10657;SDS011;5377;43.276;26.930;2023-05-07T07:02:32;1.35;;;0.80;;
10657;SDS011;5377;43.276;26.930;2023-05-07T07:05:00;7.78;;;2.05;;
10657;SDS011;5377;43.276;26.930;2023-05-07T07:07:27;3.72;;;1.15;;
10657;SDS011;5377;43.276;26.930;2023-05-07T07:09:53;5.68;;;1.92;;
10657;SDS011;5377;43.276;26.930;2023-05-07T07:12:20;2.75;;;1.55;;
10657;SDS011;5377;43.276;26.930;2023-05-07T07:14:47;4.55;;;1.55;;
10657;SDS011;5377;43.276;26.930;2023-05-07T07:17:14;1.60;;;0.93;;
10657;SDS011;5377;43.276;26.930;2023-05-07T07:19:41;5.63;;;1.10;;
10657;SDS011;5377;43.276;26.930;2023-05-07T07:22:09;6.72;;;1.45;;
10657;SDS011;5377;43.276;26.930;2023-05-07T07:24:36;3.83;;;1.45;;
10657;SDS011;5377;43.276;26.930;2023-05-07T07:27:03;1.23;;;1.00;;
10657;SDS011;5377;43.276;26.930;2023-05-07T07:29:30;1.95;;;0.98;;
10657;SDS011;5377;43.276;26.930;2023-05-07T07:31:56;3.08;;;0.85;;
10657;SDS011;5377;43.276;26.930;2023-05-07T07:34:23;2.63;;;1.00;;
10657;SDS011;5377;43.276;26.930;2023-05-07T07:36:50;2.05;;;0.90;;
10657;SDS011;5377;43.276;26.930;2023-05-07T07:39:18;2.45;;;0.60;;
10657;SDS011;5377;43.276;26.930;2023-05-07T07:41:45;5.35;;;2.10;;
10657;SDS011;5377;43.276;26.930;2023-05-07T07:44:12;1.35;;;0.73;;
10657;SDS011;5377;43.276;26.930;2023-05-07T07:46:39;6.32;;;0.88;;
10657;SDS011;5377;43.276;26.930;2023-05-07T07:49:05;2.42;;;1.20;;
10657;SDS011;5377;43.276;26.930;2023-05-07T07:51:32;5.30;;;1.17;;
10657;SDS011;5377;43.276;26.930;2023-05-07T07:53:59;3.85;;;1.00;;
10657;SDS011;5377;43.276;26.930;2023-05-07T07:56:29;5.30;;;1.10;;
10657;SDS011;5377;43.276;26.930;2023-05-07T07:58:55;2.58;;;0.80;;
10657;SDS011;5377;43.276;26.930;2023-05-07T08:01:22;2.97;;;0.98;;
10657;SDS011;5377;43.276;26.930;2023-05-07T08:03:49;2.03;;;1.00;;
10657;SDS011;5377;43.276;26.930;2023-05-07T08:06:15;3.72;;;1.67;;
10657;SDS011;5377;43.276;26.930;2023-05-07T08:08:42;2.60;;;1.15;;
10657;SDS011;5377;43.276;26.930;2023-05-07T08:11:09;7.55;;;1.20;;
10657;SDS011;5377;43.276;26.930;2023-05-07T08:13:38;3.50;;;2.15;;
10657;SDS011;5377;43.276;26.930;2023-05-07T08:16:05;12.00;;;10.35;;
10657;SDS011;5377;43.276;26.930;2023-05-07T08:18:32;2.15;;;1.02;;
10657;SDS011;5377;43.276;26.930;2023-05-07T08:20:58;2.60;;;0.90;;
10657;SDS011;5377;43.276;26.930;2023-05-07T08:23:25;1.83;;;1.00;;
10657;SDS011;5377;43.276;26.930;2023-05-07T08:25:52;3.13;;;1.15;;
10657;SDS011;5377;43.276;26.930;2023-05-07T08:28:19;1.25;;;0.85;;
10657;SDS011;5377;43.276;26.930;2023-05-07T08:30:47;0.70;;;0.70;;
10657;SDS011;5377;43.276;26.930;2023-05-07T08:33:14;3.30;;;1.05;;
10657;SDS011;5377;43.276;26.930;2023-05-07T08:35:41;5.78;;;1.55;;
10657;SDS011;5377;43.276;26.930;2023-05-07T08:38:08;2.85;;;1.55;;
10657;SDS011;5377;43.276;26.930;2023-05-07T08:40:36;0.98;;;0.60;;
10657;SDS011;5377;43.276;26.930;2023-05-07T08:43:04;2.40;;;0.75;;
10657;SDS011;5377;43.276;26.930;2023-05-07T08:45:32;5.32;;;0.98;;
10657;SDS011;5377;43.276;26.930;2023-05-07T08:48:03;3.15;;;0.90;;
10657;SDS011;5377;43.276;26.930;2023-05-07T08:50:35;2.33;;;0.75;;
10657;SDS011;5377;43.276;26.930;2023-05-07T08:53:02;3.05;;;1.10;;
10657;SDS011;5377;43.276;26.930;2023-05-07T08:55:29;1.05;;;0.75;;
10657;SDS011;5377;43.276;26.930;2023-05-07T08:57:56;3.83;;;0.90;;
10657;SDS011;5377;43.276;26.930;2023-05-07T09:00:23;4.80;;;0.93;;
10657;SDS011;5377;43.276;26.930;2023-05-07T09:02:50;1.10;;;0.82;;
10657;SDS011;5377;43.276;26.930;2023-05-07T09:05:19;6.07;;;1.52;;
10657;SDS011;5377;43.276;26.930;2023-05-07T09:07:46;5.57;;;1.45;;
10657;SDS011;5377;43.276;26.930;2023-05-07T09:10:13;4.75;;;1.00;;
10657;SDS011;5377;43.276;26.930;2023-05-07T09:12:40;2.08;;;1.20;;
10657;SDS011;5377;43.276;26.930;2023-05-07T09:15:07;2.20;;;1.17;;
10657;SDS011;5377;43.276;26.930;2023-05-07T09:17:35;5.95;;;1.10;;
10657;SDS011;5377;43.276;26.930;2023-05-07T09:20:02;1.05;;;0.80;;
10657;SDS011;5377;43.276;26.930;2023-05-07T09:22:32;2.17;;;0.85;;
10657;SDS011;5377;43.276;26.930;2023-05-07T09:24:59;1.33;;;0.68;;
10657;SDS011;5377;43.276;26.930;2023-05-07T09:27:26;2.30;;;0.95;;
10657;SDS011;5377;43.276;26.930;2023-05-07T09:29:53;1.17;;;0.85;;
10657;SDS011;5377;43.276;26.930;2023-05-07T09:32:19;4.55;;;0.70;;
10657;SDS011;5377;43.276;26.930;2023-05-07T09:34:46;0.70;;;0.60;;
10657;SDS011;5377;43.276;26.930;2023-05-07T09:37:13;5.07;;;2.45;;
10657;SDS011;5377;43.276;26.930;2023-05-07T09:39:42;4.57;;;0.90;;
10657;SDS011;5377;43.276;26.930;2023-05-07T09:42:11;5.53;;;1.10;;
10657;SDS011;5377;43.276;26.930;2023-05-07T09:44:40;4.88;;;1.08;;
10657;SDS011;5377;43.276;26.930;2023-05-07T09:47:07;0.63;;;0.60;;
10657;SDS011;5377;43.276;26.930;2023-05-07T09:49:34;3.22;;;1.00;;
10657;SDS011;5377;43.276;26.930;2023-05-07T09:52:03;4.00;;;1.00;;
10657;SDS011;5377;43.276;26.930;2023-05-07T09:54:34;2.13;;;0.80;;
10657;SDS011;5377;43.276;26.930;2023-05-07T09:57:04;2.55;;;0.90;;
10657;SDS011;5377;43.276;26.930;2023-05-07T09:59:32;1.00;;;0.70;;
10657;SDS011;5377;43.276;26.930;2023-05-07T10:01:59;3.97;;;1.40;;
10657;SDS011;5377;43.276;26.930;2023-05-07T10:04:27;4.15;;;0.90;;
10657;SDS011;5377;43.276;26.930;2023-05-07T10:06:54;2.53;;;1.13;;
10657;SDS011;5377;43.276;26.930;2023-05-07T10:09:22;2.17;;;0.65;;
10657;SDS011;5377;43.276;26.930;2023-05-07T10:11:50;1.10;;;0.73;;
10657;SDS011;5377;43.276;26.930;2023-05-07T10:14:19;2.75;;;1.00;;
10657;SDS011;5377;43.276;26.930;2023-05-07T10:16:46;1.35;;;0.70;;
10657;SDS011;5377;43.276;26.930;2023-05-07T10:19:14;2.13;;;0.85;;
10657;SDS011;5377;43.276;26.930;2023-05-07T10:21:43;2.03;;;0.70;;
10657;SDS011;5377;43.276;26.930;2023-05-07T10:24:16;0.63;;;0.63;;
10657;SDS011;5377;43.276;26.930;2023-05-07T10:26:48;3.53;;;0.85;;
10657;SDS011;5377;43.276;26.930;2023-05-07T10:29:21;0.88;;;0.55;;
10657;SDS011;5377;43.276;26.930;2023-05-07T10:31:58;0.98;;;0.50;;
10657;SDS011;5377;43.276;26.930;2023-05-07T10:34:36;1.85;;;0.65;;
10657;SDS011;5377;43.276;26.930;2023-05-07T10:37:06;2.50;;;0.82;;
10657;SDS011;5377;43.276;26.930;2023-05-07T10:39:34;3.45;;;0.90;;
10657;SDS011;5377;43.276;26.930;2023-05-07T10:42:08;2.05;;;0.60;;
10657;SDS011;5377;43.276;26.930;2023-05-07T10:44:37;2.22;;;0.70;;
10657;SDS011;5377;43.276;26.930;2023-05-07T10:47:06;2.58;;;0.60;;
10657;SDS011;5377;43.276;26.930;2023-05-07T10:49:35;0.80;;;0.80;;
10657;SDS011;5377;43.276;26.930;2023-05-07T10:52:12;3.05;;;0.70;;
10657;SDS011;5377;43.276;26.930;2023-05-07T10:54:41;1.05;;;0.50;;
10657;SDS011;5377;43.276;26.930;2023-05-07T11:00:00;1.33;;;0.70;;
10657;SDS011;5377;43.276;26.930;2023-05-07T11:05:26;4.88;;;1.17;;
10657;SDS011;5377;43.276;26.930;2023-05-07T11:07:55;4.22;;;1.08;;
10657;SDS011;5377;43.276;26.930;2023-05-07T11:10:23;1.67;;;0.93;;
10657;SDS011;5377;43.276;26.930;2023-05-07T11:13:11;3.60;;;0.70;;
10657;SDS011;5377;43.276;26.930;2023-05-07T11:15:41;0.93;;;0.80;;
10657;SDS011;5377;43.276;26.930;2023-05-07T11:18:11;1.88;;;0.90;;
10657;SDS011;5377;43.276;26.930;2023-05-07T11:20:48;2.15;;;0.65;;
10657;SDS011;5377;43.276;26.930;2023-05-07T11:26:24;2.92;;;0.70;;
10657;SDS011;5377;43.276;26.930;2023-05-07T11:28:53;2.22;;;0.77;;
10657;SDS011;5377;43.276;26.930;2023-05-07T11:31:22;2.58;;;0.85;;
10657;SDS011;5377;43.276;26.930;2023-05-07T11:33:51;2.00;;;0.70;;
10657;SDS011;5377;43.276;26.930;2023-05-07T11:36:18;0.77;;;0.60;;
10657;SDS011;5377;43.276;26.930;2023-05-07T11:38:46;1.27;;;0.60;;
10657;SDS011;5377;43.276;26.930;2023-05-07T11:41:13;1.27;;;0.50;;
10657;SDS011;5377;43.276;26.930;2023-05-07T11:43:54;1.15;;;0.60;;
10657;SDS011;5377;43.276;26.930;2023-05-07T11:46:24;1.73;;;0.60;;
10657;SDS011;5377;43.276;26.930;2023-05-07T11:48:52;0.70;;;0.47;;
10657;SDS011;5377;43.276;26.930;2023-05-07T11:51:19;1.67;;;0.60;;
10657;SDS011;5377;43.276;26.930;2023-05-07T11:53:47;2.72;;;0.55;;
10657;SDS011;5377;43.276;26.930;2023-05-07T11:56:14;4.28;;;1.42;;
10657;SDS011;5377;43.276;26.930;2023-05-07T11:58:43;3.67;;;0.95;;
10657;SDS011;5377;43.276;26.930;2023-05-07T12:01:13;5.55;;;0.70;;
10657;SDS011;5377;43.276;26.930;2023-05-07T12:03:40;1.33;;;0.65;;
10657;SDS011;5377;43.276;26.930;2023-05-07T12:06:09;3.72;;;0.85;;
10657;SDS011;5377;43.276;26.930;2023-05-07T12:08:37;0.93;;;0.60;;
10657;SDS011;5377;43.276;26.930;2023-05-07T12:11:06;1.58;;;0.60;;
10657;SDS011;5377;43.276;26.930;2023-05-07T12:13:35;1.67;;;0.50;;
10657;SDS011;5377;43.276;26.930;2023-05-07T12:16:01;4.45;;;1.00;;
10657;SDS011;5377;43.276;26.930;2023-05-07T12:18:30;2.15;;;0.57;;
10657;SDS011;5377;43.276;26.930;2023-05-07T12:20:57;2.03;;;0.80;;
10657;SDS011;5377;43.276;26.930;2023-05-07T12:23:25;4.13;;;0.60;;
10657;SDS011;5377;43.276;26.930;2023-05-07T12:25:53;2.05;;;0.68;;
10657;SDS011;5377;43.276;26.930;2023-05-07T12:28:19;2.78;;;0.68;;
10657;SDS011;5377;43.276;26.930;2023-05-07T12:30:47;1.85;;;0.55;;
10657;SDS011;5377;43.276;26.930;2023-05-07T12:33:16;4.80;;;1.23;;
10657;SDS011;5377;43.276;26.930;2023-05-07T12:35:44;1.38;;;0.52;;
10657;SDS011;5377;43.276;26.930;2023-05-07T12:38:12;0.68;;;0.68;;
10657;SDS011;5377;43.276;26.930;2023-05-07T12:40:40;1.17;;;0.80;;
10657;SDS011;5377;43.276;26.930;2023-05-07T12:43:10;1.13;;;0.50;;
10657;SDS011;5377;43.276;26.930;2023-05-07T12:45:42;0.88;;;0.57;;
10657;SDS011;5377;43.276;26.930;2023-05-07T12:48:09;1.73;;;0.60;;
10657;SDS011;5377;43.276;26.930;2023-05-07T12:50:36;2.88;;;0.80;;
10657;SDS011;5377;43.276;26.930;2023-05-07T12:53:05;2.33;;;0.68;;
10657;SDS011;5377;43.276;26.930;2023-05-07T12:55:34;0.85;;;0.70;;
10657;SDS011;5377;43.276;26.930;2023-05-07T12:58:07;0.77;;;0.60;;
10657;SDS011;5377;43.276;26.930;2023-05-07T13:00:34;5.65;;;0.90;;
10657;SDS011;5377;43.276;26.930;2023-05-07T13:03:02;6.05;;;1.15;;
10657;SDS011;5377;43.276;26.930;2023-05-07T13:05:29;0.75;;;0.50;;
10657;SDS011;5377;43.276;26.930;2023-05-07T13:07:55;2.63;;;0.68;;
10657;SDS011;5377;43.276;26.930;2023-05-07T13:10:24;4.05;;;0.80;;
10657;SDS011;5377;43.276;26.930;2023-05-07T13:12:51;3.47;;;0.77;;
10657;SDS011;5377;43.276;26.930;2023-05-07T13:15:18;4.82;;;0.80;;
10657;SDS011;5377;43.276;26.930;2023-05-07T13:17:45;3.13;;;0.93;;
10657;SDS011;5377;43.276;26.930;2023-05-07T13:20:12;2.67;;;0.82;;
10657;SDS011;5377;43.276;26.930;2023-05-07T13:22:40;3.95;;;1.02;;
10657;SDS011;5377;43.276;26.930;2023-05-07T13:25:07;2.67;;;0.93;;
10657;SDS011;5377;43.276;26.930;2023-05-07T13:27:36;3.17;;;0.70;;
10657;SDS011;5377;43.276;26.930;2023-05-07T13:30:06;2.08;;;0.70;;
10657;SDS011;5377;43.276;26.930;2023-05-07T13:32:33;2.65;;;1.20;;
10657;SDS011;5377;43.276;26.930;2023-05-07T13:35:00;1.42;;;0.60;;
10657;SDS011;5377;43.276;26.930;2023-05-07T13:37:27;1.15;;;1.05;;
10657;SDS011;5377;43.276;26.930;2023-05-07T13:39:54;2.45;;;0.88;;
10657;SDS011;5377;43.276;26.930;2023-05-07T13:42:21;3.20;;;0.77;;
10657;SDS011;5377;43.276;26.930;2023-05-07T13:44:49;4.82;;;0.65;;
10657;SDS011;5377;43.276;26.930;2023-05-07T13:47:16;3.72;;;1.23;;
10657;SDS011;5377;43.276;26.930;2023-05-07T13:49:42;3.80;;;0.88;;
10657;SDS011;5377;43.276;26.930;2023-05-07T13:52:09;2.38;;;0.90;;
10657;SDS011;5377;43.276;26.930;2023-05-07T13:54:36;1.48;;;0.68;;
10657;SDS011;5377;43.276;26.930;2023-05-07T13:57:03;1.60;;;0.65;;
10657;SDS011;5377;43.276;26.930;2023-05-07T13:59:30;1.65;;;0.63;;
10657;SDS011;5377;43.276;26.930;2023-05-07T14:01:58;2.50;;;0.77;;
10657;SDS011;5377;43.276;26.930;2023-05-07T14:04:25;4.05;;;0.85;;
10657;SDS011;5377;43.276;26.930;2023-05-07T14:06:52;2.03;;;0.90;;
10657;SDS011;5377;43.276;26.930;2023-05-07T14:09:18;3.55;;;1.83;;
10657;SDS011;5377;43.276;26.930;2023-05-07T14:11:45;2.80;;;0.80;;
10657;SDS011;5377;43.276;26.930;2023-05-07T14:14:12;2.05;;;0.90;;
10657;SDS011;5377;43.276;26.930;2023-05-07T14:16:39;3.80;;;1.33;;
10657;SDS011;5377;43.276;26.930;2023-05-07T14:19:07;1.65;;;0.63;;
10657;SDS011;5377;43.276;26.930;2023-05-07T14:21:34;3.45;;;1.00;;
10657;SDS011;5377;43.276;26.930;2023-05-07T14:24:01;3.17;;;1.00;;
10657;SDS011;5377;43.276;26.930;2023-05-07T14:26:27;3.65;;;1.20;;
10657;SDS011;5377;43.276;26.930;2023-05-07T14:28:55;1.00;;;0.73;;
10657;SDS011;5377;43.276;26.930;2023-05-07T14:31:23;2.85;;;0.70;;
10657;SDS011;5377;43.276;26.930;2023-05-07T14:33:50;3.90;;;0.93;;
10657;SDS011;5377;43.276;26.930;2023-05-07T14:36:19;1.80;;;0.73;;
10657;SDS011;5377;43.276;26.930;2023-05-07T14:38:47;5.35;;;1.02;;
10657;SDS011;5377;43.276;26.930;2023-05-07T14:41:15;2.42;;;0.70;;
10657;SDS011;5377;43.276;26.930;2023-05-07T14:43:42;2.72;;;1.30;;
10657;SDS011;5377;43.276;26.930;2023-05-07T14:46:14;3.75;;;0.70;;
10657;SDS011;5377;43.276;26.930;2023-05-07T14:48:41;2.35;;;0.70;;
10657;SDS011;5377;43.276;26.930;2023-05-07T14:51:09;2.08;;;0.68;;
10657;SDS011;5377;43.276;26.930;2023-05-07T14:53:37;1.70;;;0.60;;
10657;SDS011;5377;43.276;26.930;2023-05-07T14:56:04;1.67;;;0.60;;
10657;SDS011;5377;43.276;26.930;2023-05-07T14:58:31;5.97;;;1.40;;
10657;SDS011;5377;43.276;26.930;2023-05-07T15:00:58;7.43;;;1.40;;